Time;durP1;ratioP1;P1;durP2;ratioP2;P2;SDS_P1;SDS_P2;PMS_P1;PMS_P2;Temp;Humidity;BMP_temperature;BMP_pressure;BME280_temperature;BME280_humidity;BME280_pressure;Samples;Min_cycle;Max_cycle;Signal;HPM_P1;HPM_P2
2022/02/01 00:03:57;0.00;0.00;0.62;0.00;0.00;0.62;4.03;3.30;;;20.90;27.20;;;;;;2240874;62;20367;-62
2022/02/01 00:15:59;0.00;0.00;0.62;0.00;0.00;0.62;6.40;4.93;;;20.80;26.90;;;;;;2241883;62;20883;-62
2022/02/01 00:39:09;0.00;0.00;0.62;0.00;0.00;0.62;7.20;4.77;;;20.50;26.30;;;;;;2240577;62;20431;-61
2022/02/01 00:41:54;0.00;0.00;0.62;0.00;0.00;0.62;5.30;4.80;;;20.40;26.20;;;;;;2240972;62;20366;-61
2022/02/01 00:44:41;0.00;0.00;0.62;0.00;0.00;0.62;6.47;4.50;;;20.40;26.30;;;;;;2241740;62;20759;-62
2022/02/01 00:47:26;0.00;0.00;0.62;0.00;0.00;0.62;5.40;3.90;;;20.40;26.20;;;;;;2240083;62;20397;-61
2022/02/01 00:50:13;0.00;0.00;0.62;0.00;0.00;0.62;5.20;4.43;;;20.30;26.20;;;;;;2252155;58;20843;-61
2022/02/01 00:53:00;0.00;0.00;0.62;0.00;0.00;0.62;4.60;3.80;;;20.30;26.30;;;;;;2240799;62;20386;-62
2022/02/01 00:55:45;0.00;0.00;0.62;0.00;0.00;0.62;5.90;3.70;;;20.30;26.30;;;;;;2241654;62;20370;-61
2022/02/01 00:58:29;0.00;0.00;0.62;0.00;0.00;0.62;4.23;3.53;;;20.20;26.20;;;;;;2241665;62;20429;-61
2022/02/01 01:01:14;0.00;0.00;0.62;0.00;0.00;0.62;6.00;4.20;;;20.30;26.30;;;;;;2241469;62;20386;-61
2022/02/01 01:03:59;0.00;0.00;0.62;0.00;0.00;0.62;6.47;4.00;;;20.20;26.20;;;;;;2241471;62;20417;-62
2022/02/01 01:06:43;0.00;0.00;0.62;0.00;0.00;0.62;6.17;4.50;;;20.20;26.20;;;;;;2242228;62;20361;-61
2022/02/01 01:09:29;0.00;0.00;0.62;0.00;0.00;0.62;4.00;3.60;;;20.20;26.20;;;;;;2240960;61;20386;-61
2022/02/01 01:12:15;0.00;0.00;0.62;0.00;0.00;0.62;5.33;4.83;;;20.10;26.10;;;;;;2241790;62;20595;-61
2022/02/01 01:18:08;0.00;0.00;0.62;0.00;0.00;0.62;5.17;4.07;;;20.10;26.50;;;;;;2241526;62;20366;-62
2022/02/01 01:45:26;0.00;0.00;0.62;0.00;0.00;0.62;4.97;2.70;;;19.80;26.20;;;;;;2241661;62;20390;-60
2022/02/01 01:54:18;0.00;0.00;0.62;0.00;0.00;0.62;3.73;3.00;;;19.80;26.40;;;;;;2240909;62;20414;-61
2022/02/01 01:57:04;0.00;0.00;0.62;0.00;0.00;0.62;3.37;2.10;;;19.80;26.40;;;;;;2241590;62;20447;-61
2022/02/01 01:59:51;0.00;0.00;0.62;0.00;0.00;0.62;2.90;2.20;;;19.80;26.50;;;;;;2241128;62;20645;-61
2022/02/01 02:02:36;0.00;0.00;0.62;0.00;0.00;0.62;3.37;2.50;;;19.80;26.50;;;;;;2241530;62;20483;-59
2022/02/01 02:05:20;0.00;0.00;0.62;0.00;0.00;0.62;3.40;2.50;;;19.80;26.50;;;;;;2241748;62;20746;-62
2022/02/01 02:08:06;0.00;0.00;0.62;0.00;0.00;0.62;2.83;2.23;;;19.80;26.40;;;;;;2241053;62;20361;-62
2022/02/01 02:10:57;0.00;0.00;0.62;0.00;0.00;0.62;3.23;2.23;;;19.80;26.40;;;;;;2241042;62;20418;-62
2022/02/01 02:16:57;0.00;0.00;0.62;0.00;0.00;0.62;3.90;2.40;;;19.70;26.30;;;;;;2241489;62;20418;-61
2022/02/01 02:19:41;0.00;0.00;0.62;0.00;0.00;0.62;2.20;1.87;;;19.70;26.40;;;;;;2241201;62;20394;-61
2022/02/01 02:22:27;0.00;0.00;0.62;0.00;0.00;0.62;2.67;1.70;;;19.70;26.40;;;;;;2241379;62;20406;-62
2022/02/01 02:25:12;0.00;0.00;0.62;0.00;0.00;0.62;3.17;2.03;;;19.70;26.40;;;;;;2241039;62;20506;-61
2022/02/01 02:27:58;0.00;0.00;0.62;0.00;0.00;0.62;3.73;1.87;;;19.70;26.40;;;;;;2242052;62;20362;-61
2022/02/01 02:30:44;0.00;0.00;0.62;0.00;0.00;0.62;2.60;1.40;;;19.70;26.40;;;;;;2240991;62;20464;-61
2022/02/01 02:33:31;0.00;0.00;0.62;0.00;0.00;0.62;3.87;2.00;;;19.70;26.40;;;;;;2241444;62;20678;-61
2022/02/01 02:36:19;0.00;0.00;0.62;0.00;0.00;0.62;2.40;1.53;;;19.70;26.40;;;;;;2242080;62;20440;-62
2022/02/01 02:39:25;0.00;0.00;0.62;0.00;0.00;0.62;2.97;2.07;;;19.70;26.40;;;;;;2241039;62;20386;-61
2022/02/01 02:42:13;0.00;0.00;0.62;0.00;0.00;0.62;2.70;1.60;;;19.70;26.40;;;;;;2241500;62;20394;-62
2022/02/01 02:45:04;0.00;0.00;0.62;0.00;0.00;0.62;1.90;1.43;;;19.70;26.30;;;;;;2241210;62;20362;-61
2022/02/01 02:47:49;0.00;0.00;0.62;0.00;0.00;0.62;2.93;1.40;;;19.60;26.20;;;;;;2240334;62;20383;-61
2022/02/01 02:50:33;0.00;0.00;0.62;0.00;0.00;0.62;5.53;2.03;;;19.60;26.30;;;;;;2555394;46;20605;-62
2022/02/01 02:53:18;0.00;0.00;0.62;0.00;0.00;0.62;3.53;1.87;;;19.60;26.30;;;;;;2236525;62;20367;-61
2022/02/01 02:56:08;0.00;0.00;0.62;0.00;0.00;0.62;4.57;1.60;;;19.60;26.10;;;;;;2237469;62;20392;-61
2022/02/01 02:58:53;0.00;0.00;0.62;0.00;0.00;0.62;2.67;1.43;;;19.50;25.90;;;;;;2237137;62;20379;-61
2022/02/01 03:01:39;0.00;0.00;0.62;0.00;0.00;0.62;3.47;1.73;;;19.50;25.90;;;;;;2237036;62;20395;-61
2022/02/01 03:04:24;0.00;0.00;0.62;0.00;0.00;0.62;3.50;1.43;;;19.50;25.80;;;;;;2237637;62;20632;-61
2022/02/01 03:07:09;0.00;0.00;0.62;0.00;0.00;0.62;3.27;1.53;;;19.50;25.80;;;;;;2237360;62;20363;-62
2022/02/01 03:09:54;0.00;0.00;0.62;0.00;0.00;0.62;4.03;1.53;;;19.40;25.70;;;;;;2236761;62;20402;-62
2022/02/01 03:15:51;0.00;0.00;0.62;0.00;0.00;0.62;2.67;1.30;;;19.40;25.80;;;;;;2236626;62;20401;-62
2022/02/01 03:21:40;0.00;0.00;0.62;0.00;0.00;0.62;4.07;1.90;;;19.40;25.90;;;;;;2236727;62;20581;-61
2022/02/01 03:24:24;0.00;0.00;0.62;0.00;0.00;0.62;4.97;1.50;;;19.30;25.80;;;;;;2236966;62;20756;-61
2022/02/01 03:27:09;0.00;0.00;0.62;0.00;0.00;0.62;3.10;1.60;;;19.30;25.90;;;;;;2238032;62;20368;-61
2022/02/01 03:29:55;0.00;0.00;0.62;0.00;0.00;0.62;3.10;1.80;;;19.30;25.90;;;;;;2236356;62;20476;-61
2022/02/01 03:32:40;0.00;0.00;0.62;0.00;0.00;0.62;7.30;1.80;;;19.20;25.90;;;;;;2237377;62;20366;-61
2022/02/01 03:35:24;0.00;0.00;0.62;0.00;0.00;0.62;4.23;1.77;;;19.20;25.80;;;;;;2237917;62;20664;-62
2022/02/01 03:38:08;0.00;0.00;0.62;0.00;0.00;0.62;4.87;1.90;;;19.20;25.80;;;;;;2236912;62;20423;-62
2022/02/01 03:40:53;0.00;0.00;0.62;0.00;0.00;0.62;3.27;1.60;;;19.20;25.90;;;;;;2237463;62;20390;-62
2022/02/01 03:43:38;0.00;0.00;0.62;0.00;0.00;0.62;3.37;1.73;;;19.20;25.90;;;;;;2237079;62;20461;-62
2022/02/01 03:46:24;0.00;0.00;0.62;0.00;0.00;0.62;4.23;1.60;;;19.20;26.50;;;;;;2237233;62;20416;-60
2022/02/01 03:49:08;0.00;0.00;0.62;0.00;0.00;0.62;5.77;1.73;;;19.10;26.00;;;;;;2240621;62;20537;-60
2022/02/01 03:51:58;0.00;0.00;0.62;0.00;0.00;0.62;5.30;1.90;;;19.10;26.00;;;;;;2240320;62;20422;-62
2022/02/01 03:54:42;0.00;0.00;0.62;0.00;0.00;0.62;4.87;1.37;;;19.10;26.00;;;;;;2241171;62;20390;-60
2022/02/01 03:57:27;0.00;0.00;0.62;0.00;0.00;0.62;4.80;1.70;;;19.10;26.00;;;;;;2241863;62;20402;-61
2022/02/01 04:00:13;0.00;0.00;0.62;0.00;0.00;0.62;4.80;1.90;;;19.10;25.80;;;;;;2240194;62;20458;-60
2022/02/01 04:03:03;0.00;0.00;0.62;0.00;0.00;0.62;4.50;2.00;;;19.00;25.60;;;;;;2241279;62;20397;-62
2022/02/01 04:05:48;0.00;0.00;0.62;0.00;0.00;0.62;4.00;1.80;;;19.00;25.60;;;;;;2240888;62;20367;-62
2022/02/01 04:08:33;0.00;0.00;0.62;0.00;0.00;0.62;5.07;2.30;;;19.00;25.60;;;;;;2241082;62;20370;-61
2022/02/01 04:11:17;0.00;0.00;0.62;0.00;0.00;0.62;6.93;2.77;;;19.00;25.70;;;;;;2241569;62;20366;-62
2022/02/01 04:14:02;0.00;0.00;0.62;0.00;0.00;0.62;2.80;1.67;;;19.00;26.20;;;;;;2240633;62;20406;-60
2022/02/01 04:16:46;0.00;0.00;0.62;0.00;0.00;0.62;7.00;2.17;;;18.90;25.70;;;;;;2240892;62;20362;-60
2022/02/01 04:19:33;0.00;0.00;0.62;0.00;0.00;0.62;4.57;2.07;;;18.90;25.70;;;;;;2241369;62;20398;-60
2022/02/01 04:22:18;0.00;0.00;0.62;0.00;0.00;0.62;5.40;2.17;;;18.90;25.60;;;;;;2240566;62;20722;-62
2022/02/01 04:25:02;0.00;0.00;0.62;0.00;0.00;0.62;4.00;1.73;;;18.80;25.40;;;;;;2241068;62;20726;-62
2022/02/01 04:27:47;0.00;0.00;0.62;0.00;0.00;0.62;9.00;2.30;;;18.80;25.40;;;;;;2241259;61;20377;-63
2022/02/01 04:30:32;0.00;0.00;0.62;0.00;0.00;0.62;4.67;2.03;;;18.80;25.30;;;;;;2242166;62;20647;-61
2022/02/01 04:33:17;0.00;0.00;0.62;0.00;0.00;0.62;7.43;2.00;;;18.70;25.30;;;;;;2242554;62;20410;-61
2022/02/01 04:36:03;0.00;0.00;0.62;0.00;0.00;0.62;4.30;1.83;;;18.70;25.30;;;;;;2242032;62;20472;-62
2022/02/01 04:38:56;0.00;0.00;0.62;0.00;0.00;0.62;5.60;1.90;;;18.70;25.40;;;;;;2242064;62;20607;-61
2022/02/01 04:41:41;0.00;0.00;0.62;0.00;0.00;0.62;7.00;3.33;;;18.70;25.40;;;;;;2242523;62;20366;-61
2022/02/01 04:44:27;0.00;0.00;0.62;0.00;0.00;0.62;6.07;2.33;;;18.60;25.40;;;;;;2241788;62;20366;-62
2022/02/01 04:47:12;0.00;0.00;0.62;0.00;0.00;0.62;7.73;2.00;;;18.60;25.40;;;;;;2242337;62;20688;-62
2022/02/01 04:49:58;0.00;0.00;0.62;0.00;0.00;0.62;5.80;2.03;;;18.60;25.40;;;;;;2263390;58;20391;-62
2022/02/01 04:52:46;0.00;0.00;0.62;0.00;0.00;0.62;5.47;2.20;;;18.50;25.30;;;;;;2238363;62;20363;-62
2022/02/01 04:55:50;0.00;0.00;0.62;0.00;0.00;0.62;5.77;2.20;;;18.50;25.30;;;;;;2238784;62;20508;-61
2022/02/01 04:58:37;0.00;0.00;0.62;0.00;0.00;0.62;4.27;2.13;;;18.50;25.30;;;;;;2237827;62;20375;-61
2022/02/01 05:01:31;0.00;0.00;0.62;0.00;0.00;0.62;5.50;2.00;;;18.50;25.50;;;;;;2238239;62;20423;-60
2022/02/01 05:04:19;0.00;0.00;0.62;0.00;0.00;0.62;6.90;2.27;;;18.50;25.50;;;;;;2239231;62;20363;-61
2022/02/01 05:07:04;0.00;0.00;0.62;0.00;0.00;0.62;5.97;1.90;;;18.60;25.60;;;;;;2237896;62;20379;-60
2022/02/01 05:09:51;0.00;0.00;0.62;0.00;0.00;0.62;5.70;3.33;;;18.60;25.60;;;;;;2238157;62;20414;-60
2022/02/01 05:12:37;0.00;0.00;0.62;0.00;0.00;0.62;5.20;1.83;;;18.60;25.60;;;;;;2238327;62;20582;-61
2022/02/01 05:15:22;0.00;0.00;0.62;0.00;0.00;0.62;4.23;1.90;;;18.60;25.70;;;;;;2237909;62;20702;-61
2022/02/01 05:18:13;0.00;0.00;0.62;0.00;0.00;0.62;3.83;1.67;;;18.70;25.90;;;;;;2238959;62;20365;-64
2022/02/01 05:21:05;0.00;0.00;0.62;0.00;0.00;0.62;3.47;1.50;;;18.70;26.00;;;;;;2237805;62;20754;-61
2022/02/01 05:23:51;0.00;0.00;0.62;0.00;0.00;0.62;4.10;1.50;;;18.70;26.00;;;;;;2238401;62;20394;-61
2022/02/01 05:26:37;0.00;0.00;0.62;0.00;0.00;0.62;4.47;1.93;;;18.70;26.10;;;;;;2238823;62;20595;-59
2022/02/01 05:29:22;0.00;0.00;0.62;0.00;0.00;0.62;5.17;1.60;;;18.80;26.20;;;;;;2237865;62;20386;-61
2022/02/01 05:32:22;0.00;0.00;0.62;0.00;0.00;0.62;3.80;1.87;;;18.80;26.20;;;;;;2238317;62;20779;-62
2022/02/01 05:35:08;0.00;0.00;0.62;0.00;0.00;0.62;4.50;1.70;;;18.80;26.20;;;;;;2238055;62;20394;-61
2022/02/01 05:37:53;0.00;0.00;0.62;0.00;0.00;0.62;3.53;1.73;;;18.90;26.20;;;;;;2237952;62;20371;-61
2022/02/01 05:40:43;0.00;0.00;0.62;0.00;0.00;0.62;2.43;1.30;;;18.90;26.20;;;;;;2238081;62;20383;-61
2022/02/01 05:43:29;0.00;0.00;0.62;0.00;0.00;0.62;2.87;1.30;;;18.90;26.20;;;;;;2236922;62;20367;-60
2022/02/01 05:46:16;0.00;0.00;0.62;0.00;0.00;0.62;4.50;1.57;;;18.90;26.20;;;;;;2237638;62;20711;-60
2022/02/01 05:49:01;0.00;0.00;0.62;0.00;0.00;0.62;4.97;1.57;;;18.90;26.20;;;;;;2239982;62;20401;-61
2022/02/01 05:51:49;0.00;0.00;0.62;0.00;0.00;0.62;3.03;1.37;;;19.00;26.20;;;;;;2241200;62;20394;-60
2022/02/01 05:54:35;0.00;0.00;0.62;0.00;0.00;0.62;4.00;2.33;;;19.00;26.20;;;;;;2241565;62;20607;-63
2022/02/01 05:57:19;0.00;0.00;0.62;0.00;0.00;0.62;5.03;1.80;;;19.00;26.20;;;;;;2241480;62;20362;-61
2022/02/01 06:00:07;0.00;0.00;0.62;0.00;0.00;0.62;3.77;1.63;;;19.00;26.20;;;;;;2240997;62;20437;-62
2022/02/01 06:02:59;0.00;0.00;0.62;0.00;0.00;0.62;3.60;1.73;;;19.00;26.20;;;;;;2242011;62;20458;-61
2022/02/01 06:05:43;0.00;0.00;0.62;0.00;0.00;0.62;2.70;1.57;;;19.10;26.30;;;;;;2240753;62;20592;-62
2022/02/01 06:08:28;0.00;0.00;0.62;0.00;0.00;0.62;2.33;1.10;;;19.10;26.30;;;;;;2241407;62;20406;-61
2022/02/01 06:11:13;0.00;0.00;0.62;0.00;0.00;0.62;2.90;1.50;;;19.10;26.20;;;;;;2241280;62;20400;-61
2022/02/01 06:13:58;0.00;0.00;0.62;0.00;0.00;0.62;3.50;1.60;;;19.10;26.20;;;;;;2241374;62;20390;-62
2022/02/01 06:16:44;0.00;0.00;0.62;0.00;0.00;0.62;4.80;1.60;;;19.10;26.20;;;;;;2241790;62;20383;-62
2022/02/01 06:19:29;0.00;0.00;0.62;0.00;0.00;0.62;2.70;1.30;;;19.10;26.10;;;;;;2241279;62;20394;-62
2022/02/01 06:22:13;0.00;0.00;0.62;0.00;0.00;0.62;3.57;1.60;;;19.10;26.10;;;;;;2241130;62;20386;-60
2022/02/01 06:24:58;0.00;0.00;0.62;0.00;0.00;0.62;3.47;1.20;;;19.20;26.20;;;;;;2242095;62;20419;-60
2022/02/01 06:27:43;0.00;0.00;0.62;0.00;0.00;0.62;2.17;1.20;;;19.20;26.00;;;;;;2240817;62;20439;-62
2022/02/01 06:30:27;0.00;0.00;0.62;0.00;0.00;0.62;3.83;1.43;;;19.20;26.00;;;;;;2241135;62;20398;-60
2022/02/01 06:33:13;0.00;0.00;0.62;0.00;0.00;0.62;2.40;1.00;;;19.20;26.00;;;;;;2241932;62;20386;-62
2022/02/01 06:35:58;0.00;0.00;0.62;0.00;0.00;0.62;2.67;1.20;;;19.20;26.00;;;;;;2241324;62;20607;-62
2022/02/01 06:38:42;0.00;0.00;0.62;0.00;0.00;0.62;2.63;1.30;;;19.20;26.00;;;;;;2241505;62;20626;-62
2022/02/01 06:41:27;0.00;0.00;0.62;0.00;0.00;0.62;2.13;1.13;;;19.20;26.00;;;;;;2241097;62;20366;-61
2022/02/01 06:44:11;0.00;0.00;0.62;0.00;0.00;0.62;2.53;1.03;;;19.20;26.00;;;;;;2241077;62;20366;-62
2022/02/01 06:46:56;0.00;0.00;0.62;0.00;0.00;0.62;1.97;1.30;;;19.20;26.00;;;;;;2242194;62;20412;-60
2022/02/01 06:49:44;0.00;0.00;0.62;0.00;0.00;0.62;2.57;1.10;;;19.30;26.10;;;;;;2236854;62;20504;-62
2022/02/01 06:52:30;0.00;0.00;0.62;0.00;0.00;0.62;1.50;1.00;;;19.30;26.10;;;;;;2236661;62;20598;-62
2022/02/01 06:55:21;0.00;0.00;0.62;0.00;0.00;0.62;1.90;1.00;;;19.30;26.10;;;;;;2237911;62;20383;-61
2022/02/01 06:58:11;0.00;0.00;0.62;0.00;0.00;0.62;3.10;1.17;;;19.30;26.10;;;;;;2237390;62;20412;-62
2022/02/01 07:00:55;0.00;0.00;0.62;0.00;0.00;0.62;3.13;1.27;;;19.30;26.10;;;;;;2237450;62;20427;-61
2022/02/01 07:03:40;0.00;0.00;0.62;0.00;0.00;0.62;4.80;1.27;;;19.30;26.10;;;;;;2237150;62;20364;-61
2022/02/01 07:06:29;0.00;0.00;0.62;0.00;0.00;0.62;2.37;1.10;;;19.30;26.10;;;;;;2237073;62;20400;-61
2022/02/01 07:09:15;0.00;0.00;0.62;0.00;0.00;0.62;4.03;1.30;;;19.30;26.10;;;;;;2237742;62;20608;-62
2022/02/01 07:11:59;0.00;0.00;0.62;0.00;0.00;0.62;3.40;1.10;;;19.30;26.10;;;;;;2236639;62;20408;-61
2022/02/01 07:14:44;0.00;0.00;0.62;0.00;0.00;0.62;2.03;1.07;;;19.30;26.10;;;;;;2237514;62;20616;-61
2022/02/01 07:17:28;0.00;0.00;0.62;0.00;0.00;0.62;1.87;1.00;;;19.30;26.10;;;;;;2237937;62;20612;-62
2022/02/01 07:20:13;0.00;0.00;0.62;0.00;0.00;0.62;3.77;1.43;;;19.30;26.10;;;;;;2236889;62;20407;-61
2022/02/01 07:23:00;0.00;0.00;0.62;0.00;0.00;0.62;2.90;0.80;;;19.40;26.20;;;;;;2237533;62;20368;-62
2022/02/01 07:25:46;0.00;0.00;0.62;0.00;0.00;0.62;2.33;1.10;;;19.40;26.20;;;;;;2237137;62;20824;-60
2022/02/01 07:28:32;0.00;0.00;0.62;0.00;0.00;0.62;2.80;1.03;;;19.30;26.10;;;;;;2236643;62;20750;-62
2022/02/01 07:31:17;0.00;0.00;0.62;0.00;0.00;0.62;2.40;0.97;;;19.40;26.20;;;;;;2237622;62;20760;-62
2022/02/01 07:34:02;0.00;0.00;0.62;0.00;0.00;0.62;2.00;1.30;;;19.40;26.20;;;;;;2236873;62;20431;-62
2022/02/01 07:36:46;0.00;0.00;0.62;0.00;0.00;0.62;2.60;1.10;;;19.40;26.20;;;;;;2237556;62;20452;-62
2022/02/01 07:39:32;0.00;0.00;0.62;0.00;0.00;0.62;2.73;1.30;;;19.40;26.20;;;;;;2237524;62;20432;-60
2022/02/01 07:42:16;0.00;0.00;0.62;0.00;0.00;0.62;2.23;0.80;;;19.40;26.20;;;;;;2236962;62;20404;-59
2022/02/01 07:45:03;0.00;0.00;0.62;0.00;0.00;0.62;2.27;1.00;;;19.40;26.20;;;;;;2237267;62;20395;-61
2022/02/01 07:47:48;0.00;0.00;0.62;0.00;0.00;0.62;2.60;1.20;;;19.40;26.20;;;;;;2237852;62;20377;-60
2022/02/01 07:50:33;0.00;0.00;0.62;0.00;0.00;0.62;4.13;0.80;;;19.40;26.20;;;;;;2574910;46;20379;-62
2022/02/01 07:53:17;0.00;0.00;0.62;0.00;0.00;0.62;3.73;1.10;;;19.40;26.20;;;;;;2237762;62;20468;-60
2022/02/01 07:56:04;0.00;0.00;0.62;0.00;0.00;0.62;2.13;1.13;;;19.40;26.20;;;;;;2236840;62;20406;-61
2022/02/01 07:58:49;0.00;0.00;0.62;0.00;0.00;0.62;2.20;1.00;;;19.40;26.20;;;;;;2236929;62;20366;-60
2022/02/01 08:01:33;0.00;0.00;0.62;0.00;0.00;0.62;2.60;1.03;;;19.50;26.30;;;;;;2237547;62;20723;-61
2022/02/01 08:04:18;0.00;0.00;0.62;0.00;0.00;0.62;2.30;1.23;;;19.40;26.20;;;;;;2236583;62;20356;-61
2022/02/01 08:07:03;0.00;0.00;0.62;0.00;0.00;0.62;2.60;1.00;;;19.50;26.30;;;;;;2237221;62;20359;-61
2022/02/01 08:09:51;0.00;0.00;0.62;0.00;0.00;0.62;2.50;1.10;;;19.50;26.30;;;;;;2236965;62;20474;-61
2022/02/01 08:21:45;0.00;0.00;0.62;0.00;0.00;0.62;1.97;1.00;;;19.50;26.30;;;;;;2237173;62;20436;-62
2022/02/01 08:24:29;0.00;0.00;0.62;0.00;0.00;0.62;2.00;0.90;;;19.50;26.20;;;;;;2237255;62;20363;-61
2022/02/01 08:27:14;0.00;0.00;0.62;0.00;0.00;0.62;2.43;0.93;;;19.50;26.20;;;;;;2237233;62;20359;-62
2022/02/01 08:30:03;0.00;0.00;0.62;0.00;0.00;0.62;1.47;0.80;;;19.50;26.20;;;;;;2236962;62;20464;-61
2022/02/01 08:32:47;0.00;0.00;0.62;0.00;0.00;0.62;2.70;1.17;;;19.50;26.20;;;;;;2236790;62;20363;-61
2022/02/01 08:35:32;0.00;0.00;0.62;0.00;0.00;0.62;2.17;0.83;;;19.50;26.70;;;;;;2236920;62;20395;-60
2022/02/01 08:38:17;0.00;0.00;0.62;0.00;0.00;0.62;2.10;0.80;;;19.50;26.20;;;;;;2237832;62;20402;-62
2022/02/01 08:41:02;0.00;0.00;0.62;0.00;0.00;0.62;1.40;0.80;;;19.50;26.10;;;;;;2236636;62;20760;-61
2022/02/01 08:43:46;0.00;0.00;0.62;0.00;0.00;0.62;3.33;1.00;;;19.50;26.10;;;;;;2237112;62;20743;-62
2022/02/01 08:46:32;0.00;0.00;0.62;0.00;0.00;0.62;1.37;0.80;;;19.50;26.10;;;;;;2237224;62;20759;-61
2022/02/01 08:49:17;0.00;0.00;0.62;0.00;0.00;0.62;4.33;1.00;;;19.50;26.60;;;;;;2240063;62;20398;-62
2022/02/01 08:52:05;0.00;0.00;0.62;0.00;0.00;0.62;2.80;1.10;;;19.50;26.10;;;;;;2240999;62;20370;-61
2022/02/01 08:54:53;0.00;0.00;0.62;0.00;0.00;0.62;1.50;0.80;;;19.50;26.10;;;;;;2241039;62;20397;-61
2022/02/01 08:57:37;0.00;0.00;0.62;0.00;0.00;0.62;2.23;1.00;;;19.60;26.20;;;;;;2240778;62;20434;-61
2022/02/01 09:00:22;0.00;0.00;0.62;0.00;0.00;0.62;1.43;0.70;;;19.50;26.10;;;;;;2241309;62;20382;-61
2022/02/01 09:03:08;0.00;0.00;0.62;0.00;0.00;0.62;4.67;1.30;;;19.60;26.20;;;;;;2240397;62;20398;-61
2022/02/01 09:05:53;0.00;0.00;0.62;0.00;0.00;0.62;1.77;0.73;;;19.60;26.10;;;;;;2241004;62;20362;-61
2022/02/01 09:08:37;0.00;0.00;0.62;0.00;0.00;0.62;1.80;0.70;;;19.60;26.10;;;;;;2241306;62;20402;-60
2022/02/01 09:11:25;0.00;0.00;0.62;0.00;0.00;0.62;1.93;0.80;;;19.60;26.10;;;;;;2240506;62;20621;-60
2022/02/01 09:14:10;0.00;0.00;0.62;0.00;0.00;0.62;2.00;1.10;;;19.60;26.10;;;;;;2241189;61;20414;-60
2022/02/01 09:16:55;0.00;0.00;0.62;0.00;0.00;0.62;2.27;1.17;;;19.60;26.00;;;;;;2241775;62;20394;-61
2022/02/01 09:19:42;0.00;0.00;0.62;0.00;0.00;0.62;2.50;1.10;;;19.60;26.00;;;;;;2240707;62;20385;-60
2022/02/01 09:22:26;0.00;0.00;0.62;0.00;0.00;0.62;1.63;0.73;;;19.60;26.00;;;;;;2242230;62;20370;-62
2022/02/01 09:25:12;0.00;0.00;0.62;0.00;0.00;0.62;1.63;0.87;;;19.60;26.00;;;;;;2240974;62;20423;-61
2022/02/01 09:27:57;0.00;0.00;0.62;0.00;0.00;0.62;1.50;0.90;;;19.60;26.00;;;;;;2241852;62;20394;-62
2022/02/01 09:30:41;0.00;0.00;0.62;0.00;0.00;0.62;1.83;0.93;;;19.60;26.00;;;;;;2241992;62;20386;-62
2022/02/01 09:33:26;0.00;0.00;0.62;0.00;0.00;0.62;2.43;1.10;;;19.60;26.00;;;;;;2241211;62;20366;-61
2022/02/01 09:36:12;0.00;0.00;0.62;0.00;0.00;0.62;1.70;0.90;;;19.60;26.00;;;;;;2241832;62;20434;-61
2022/02/01 09:38:56;0.00;0.00;0.62;0.00;0.00;0.62;2.73;1.03;;;19.60;26.00;;;;;;2241340;62;20734;-62
2022/02/01 09:41:41;0.00;0.00;0.62;0.00;0.00;0.62;1.80;0.80;;;19.60;26.00;;;;;;2240870;62;20415;-62
2022/02/01 09:44:27;0.00;0.00;0.62;0.00;0.00;0.62;1.60;1.00;;;19.60;26.00;;;;;;2242254;62;20729;-61
2022/02/01 09:47:12;0.00;0.00;0.62;0.00;0.00;0.62;1.90;0.93;;;19.60;25.90;;;;;;2241102;62;20391;-61
2022/02/01 09:49:56;0.00;0.00;0.62;0.00;0.00;0.62;2.10;1.37;;;19.60;25.90;;;;;;2268066;58;20398;-61
2022/02/01 09:52:42;0.00;0.00;0.62;0.00;0.00;0.62;1.57;0.90;;;19.60;25.90;;;;;;2241848;62;20379;-61
2022/02/01 09:55:28;0.00;0.00;0.62;0.00;0.00;0.62;2.07;0.80;;;19.60;25.90;;;;;;2241264;62;20589;-61
2022/02/01 09:58:13;0.00;0.00;0.62;0.00;0.00;0.62;3.20;1.63;;;19.60;25.90;;;;;;2241696;62;20370;-61
2022/02/01 10:00:58;0.00;0.00;0.62;0.00;0.00;0.62;1.57;0.83;;;19.60;25.90;;;;;;2241229;62;20386;-61
2022/02/01 10:03:43;0.00;0.00;0.62;0.00;0.00;0.62;1.70;0.80;;;19.70;25.90;;;;;;2241554;62;20357;-62
2022/02/01 10:06:31;0.00;0.00;0.62;0.00;0.00;0.62;1.53;1.00;;;19.70;25.90;;;;;;2242107;62;20383;-62
2022/02/01 10:09:17;0.00;0.00;0.62;0.00;0.00;0.62;1.60;0.73;;;19.70;25.90;;;;;;2240963;62;20654;-62
2022/02/01 10:12:01;0.00;0.00;0.62;0.00;0.00;0.62;2.23;0.93;;;19.70;25.90;;;;;;2241214;62;20471;-62
2022/02/01 10:14:56;0.00;0.00;0.62;0.00;0.00;0.62;1.90;1.07;;;19.70;25.90;;;;;;2241893;62;20386;-61
2022/02/01 10:17:45;0.00;0.00;0.62;0.00;0.00;0.62;1.73;1.00;;;19.60;25.80;;;;;;2240912;62;20367;-62
2022/02/01 10:20:39;0.00;0.00;0.62;0.00;0.00;0.62;1.83;0.97;;;19.70;25.90;;;;;;2241350;62;20379;-62
2022/02/01 10:23:26;0.00;0.00;0.62;0.00;0.00;0.62;3.17;1.37;;;19.70;25.90;;;;;;2241152;62;20592;-62
2022/02/01 10:26:16;0.00;0.00;0.62;0.00;0.00;0.62;1.57;0.90;;;19.70;25.90;;;;;;2241053;61;20410;-61
2022/02/01 10:29:19;0.00;0.00;0.62;0.00;0.00;0.62;1.70;1.10;;;19.70;25.90;;;;;;2241747;62;20394;-61
2022/02/01 10:32:17;0.00;0.00;0.62;0.00;0.00;0.62;1.97;0.90;;;19.70;25.90;;;;;;2240563;62;20366;-62
2022/02/01 10:35:21;0.00;0.00;0.62;0.00;0.00;0.62;2.00;0.90;;;19.70;25.90;;;;;;2241076;62;20390;-60
2022/02/01 10:38:09;0.00;0.00;0.62;0.00;0.00;0.62;2.80;1.27;;;19.70;25.90;;;;;;2241582;62;20363;-62
2022/02/01 10:40:54;0.00;0.00;0.62;0.00;0.00;0.62;2.17;0.87;;;19.70;25.90;;;;;;2240825;62;20405;-61
2022/02/01 10:43:40;0.00;0.00;0.62;0.00;0.00;0.62;3.33;0.90;;;19.70;25.90;;;;;;2241801;62;20390;-61
2022/02/01 10:46:25;0.00;0.00;0.62;0.00;0.00;0.62;2.50;1.27;;;19.70;25.90;;;;;;2240971;62;20727;-61
2022/02/01 10:49:10;0.00;0.00;0.62;0.00;0.00;0.62;1.80;1.00;;;19.70;25.90;;;;;;2238381;62;20395;-61
2022/02/01 10:52:01;0.00;0.00;0.62;0.00;0.00;0.62;1.80;1.10;;;19.70;25.90;;;;;;2237645;62;20383;-61
2022/02/01 10:54:46;0.00;0.00;0.62;0.00;0.00;0.62;1.47;0.90;;;19.70;25.90;;;;;;2237233;62;20711;-62
2022/02/01 10:57:30;0.00;0.00;0.62;0.00;0.00;0.62;1.70;0.80;;;19.70;25.80;;;;;;2237359;62;20488;-61
2022/02/01 11:00:19;0.00;0.00;0.62;0.00;0.00;0.62;2.37;1.03;;;19.70;25.90;;;;;;2237107;62;20786;-61
2022/02/01 11:03:04;0.00;0.00;0.62;0.00;0.00;0.62;1.97;1.10;;;19.70;25.80;;;;;;2236974;62;20427;-61
2022/02/01 11:05:51;0.00;0.00;0.62;0.00;0.00;0.62;1.60;0.90;;;19.70;25.80;;;;;;2237894;62;20367;-61
2022/02/01 11:08:40;0.00;0.00;0.62;0.00;0.00;0.62;2.57;1.40;;;19.70;26.40;;;;;;2237008;62;20382;-62
2022/02/01 11:11:24;0.00;0.00;0.62;0.00;0.00;0.62;1.70;0.87;;;19.70;25.80;;;;;;2236966;62;20743;-62
2022/02/01 11:14:18;0.00;0.00;0.62;0.00;0.00;0.62;1.70;0.90;;;19.70;25.80;;;;;;2237964;62;20371;-61
2022/02/01 11:17:07;0.00;0.00;0.62;0.00;0.00;0.62;2.40;1.00;;;19.70;25.80;;;;;;2236935;62;20409;-61
2022/02/01 11:19:54;0.00;0.00;0.62;0.00;0.00;0.62;1.40;1.00;;;19.70;25.80;;;;;;2237208;62;20747;-61
2022/02/01 11:22:42;0.00;0.00;0.62;0.00;0.00;0.62;1.73;1.07;;;19.70;25.80;;;;;;2237213;62;20383;-60
2022/02/01 11:25:41;0.00;0.00;0.62;0.00;0.00;0.62;1.70;0.80;;;19.70;25.80;;;;;;2236969;62;20710;-61
2022/02/01 11:28:58;0.00;0.00;0.62;0.00;0.00;0.62;1.60;0.90;;;19.70;25.80;;;;;;2237883;62;20359;-62
2022/02/01 11:31:47;0.00;0.00;0.62;0.00;0.00;0.62;1.50;0.90;;;19.70;25.80;;;;;;2236785;62;20379;-61
2022/02/01 11:34:38;0.00;0.00;0.62;0.00;0.00;0.62;1.60;1.00;;;19.70;25.80;;;;;;2237289;62;20452;-61
2022/02/01 11:37:26;0.00;0.00;0.62;0.00;0.00;0.62;1.70;1.00;;;19.70;25.80;;;;;;2236751;62;20411;-61
2022/02/01 11:40:14;0.00;0.00;0.62;0.00;0.00;0.62;1.40;0.90;;;19.70;25.80;;;;;;2236657;62;20431;-61
2022/02/01 11:43:04;0.00;0.00;0.62;0.00;0.00;0.62;2.40;1.17;;;19.70;25.80;;;;;;2237962;62;20469;-62
2022/02/01 11:45:54;0.00;0.00;0.62;0.00;0.00;0.62;1.30;0.80;;;19.70;25.90;;;;;;2237029;62;20359;-61
2022/02/01 11:48:41;0.00;0.00;0.62;0.00;0.00;0.62;1.50;0.93;;;19.70;25.80;;;;;;2239172;62;20450;-62
2022/02/01 11:51:28;0.00;0.00;0.62;0.00;0.00;0.62;1.57;1.07;;;19.70;25.80;;;;;;2241364;62;20600;-61
2022/02/01 11:54:12;0.00;0.00;0.62;0.00;0.00;0.62;1.50;0.97;;;19.70;25.80;;;;;;2240969;62;20367;-61
2022/02/01 11:57:10;0.00;0.00;0.62;0.00;0.00;0.62;1.37;0.77;;;19.70;25.80;;;;;;2241544;62;20370;-61
2022/02/01 11:59:58;0.00;0.00;0.62;0.00;0.00;0.62;1.50;0.83;;;19.70;25.80;;;;;;2240870;62;20379;-62
2022/02/01 12:02:48;0.00;0.00;0.62;0.00;0.00;0.62;2.30;1.07;;;19.70;25.80;;;;;;2240741;62;20367;-61
2022/02/01 12:05:36;0.00;0.00;0.62;0.00;0.00;0.62;1.97;1.20;;;19.70;25.80;;;;;;2241580;62;20673;-60
2022/02/01 12:08:28;0.00;0.00;0.62;0.00;0.00;0.62;1.40;0.83;;;19.70;25.80;;;;;;2240466;62;20358;-60
2022/02/01 12:11:13;0.00;0.00;0.62;0.00;0.00;0.62;1.77;0.90;;;19.70;25.80;;;;;;2241166;62;20487;-61
2022/02/01 12:13:57;0.00;0.00;0.62;0.00;0.00;0.62;1.40;0.90;;;19.70;25.80;;;;;;2241049;62;20790;-61
2022/02/01 12:16:47;0.00;0.00;0.62;0.00;0.00;0.62;1.40;0.90;;;19.70;25.80;;;;;;2240992;62;20442;-61
2022/02/01 12:19:37;0.00;0.00;0.62;0.00;0.00;0.62;1.30;0.70;;;19.70;25.80;;;;;;2241561;62;20378;-61
2022/02/01 12:22:30;0.00;0.00;0.62;0.00;0.00;0.62;1.30;0.73;;;19.70;25.80;;;;;;2240417;62;20370;-60